Airfield :
LOGIN :

Register | Disclaimer

   EN    FR    IT 

 










Legend :    VFR   Marginal VFR   IFR   Intensive IFR   Very Intensive IFR
Visi :
Ceiling :
>= 8 km
>= 3000ft
5 to 8 km
1000 to 3000 ft
1500m to 5 km
500 to 1000 ft
800 to 1500m
200 to 500 ft
< 800m
< 200 ft
Symbols :   Thunderstorms  Fog  Heavy snow  Heavy precipitations  Wind > 20 kt
SIGMETs :     Misc.  Thunderstorms  Icing  Turbulence  Mountain Waves  Volcanic Ashes






- Airport Elevation : 194 ft


EBCV - Chièvres

CURRENT METAR :
  • 290425Z AUTO VRB01KT 9999 FEW031/// SCT067/// 05/04 Q1018 BLU

EXPIRED METARs :
  • 290355Z AUTO VRB01KT 9999 FEW026/// BKN053/// 05/04 Q1018 BLU
  • 290325Z AUTO VRB02KT 9999 NCD 04/03 Q1018 BLU
  • 290255Z AUTO VRB01KT 9999 FEW062/// 04/04 Q1018 BLU
  • 290225Z AUTO VRB01KT 9999 BKN060/// 04/04 Q1018 BLU
  • 290155Z AUTO VRB02KT 9999 NCD 04/03 Q1018 BLU

TAF TAF EBCV
Valid from the 28 at 19:00 until the 29 at 07:00 UTC


281541Z 2819/2907 34010KT 9999 FEW035
BECMG 2819/2821 33005KT BY EBWM



MET'MAP, your aeronautical weather chart ! - Copyright ORBIFLY December 2007 - Disclaimer

ORBIFLY MET'MAP TEAM :

Programming & Development : Alexandra Zaïnal
Original concept : Baudouin d'Aumeries
Technical & hardware support : Manuel Goepfert
Assistance : Marc-Olivier Méhu

Contact : metmap@orbifly.com




SOURCES & CREDITS :

   NOAA